Avondale, Arizona
Current Conditions -  °F | °C
As of 12:47 PM on Friday 31 Oct 2014 (Local Time) from KGYR Reporting Station
Few Clouds Few Clouds  
Wind Chill: 88°   Ceiling: Unl
Heat Index: 88°   Visibility: 10mi
Dew Point: 46°   Wind: 7mph
Humidity: 24%   Direction: 150°SSE
Pressure: 29.87"   Gusts: NA
Location:  33.44°N, 112.34°W
Report Text: KGYR 311947Z 15006KT 10SM FEW200 31/08 A2987
Loading
Personal Weather Stations






























Interactive Weather Map
Tropical Storm Tracking
New forecast layout! Learn more

10-Day Weather Forecast

Advertisements
Track Severe Weather on mobile